sensor_id;sensor_type;location;lat;lon;timestamp;P1;durP1;ratioP1;P2;durP2;ratioP2
2712;SDS011;1366;47.988;7.856;2023-03-20T05:02:31;2.80;;;2.60;;
2712;SDS011;1366;47.988;7.856;2023-03-20T05:04:57;2.23;;;2.13;;
2712;SDS011;1366;47.988;7.856;2023-03-20T05:07:23;2.60;;;2.50;;
2712;SDS011;1366;47.988;7.856;2023-03-20T05:09:49;2.63;;;2.53;;
2712;SDS011;1366;47.988;7.856;2023-03-20T05:12:15;2.70;;;2.60;;
2712;SDS011;1366;47.988;7.856;2023-03-20T05:17:10;2.60;;;2.50;;
2712;SDS011;1366;47.988;7.856;2023-03-20T05:19:36;3.40;;;3.10;;
2712;SDS011;1366;47.988;7.856;2023-03-20T05:22:02;3.17;;;2.97;;
2712;SDS011;1366;47.988;7.856;2023-03-20T05:24:29;3.07;;;2.90;;
2712;SDS011;1366;47.988;7.856;2023-03-20T05:26:55;2.83;;;2.63;;
2712;SDS011;1366;47.988;7.856;2023-03-20T05:29:22;3.10;;;2.90;;
2712;SDS011;1366;47.988;7.856;2023-03-20T05:31:48;2.77;;;2.60;;
2712;SDS011;1366;47.988;7.856;2023-03-20T05:34:14;2.73;;;2.53;;
2712;SDS011;1366;47.988;7.856;2023-03-20T05:36:40;2.67;;;2.47;;
2712;SDS011;1366;47.988;7.856;2023-03-20T05:39:06;2.70;;;2.50;;
2712;SDS011;1366;47.988;7.856;2023-03-20T05:41:32;3.70;;;2.27;;
2712;SDS011;1366;47.988;7.856;2023-03-20T05:43:58;2.57;;;2.47;;
2712;SDS011;1366;47.988;7.856;2023-03-20T05:46:24;2.47;;;2.27;;
2712;SDS011;1366;47.988;7.856;2023-03-20T05:48:50;2.27;;;2.17;;
2712;SDS011;1366;47.988;7.856;2023-03-20T05:51:16;2.80;;;2.60;;
2712;SDS011;1366;47.988;7.856;2023-03-20T05:53:42;2.30;;;2.20;;
2712;SDS011;1366;47.988;7.856;2023-03-20T05:56:08;2.50;;;2.40;;
2712;SDS011;1366;47.988;7.856;2023-03-20T05:58:34;2.47;;;2.23;;
2712;SDS011;1366;47.988;7.856;2023-03-20T06:01:01;2.30;;;2.10;;
2712;SDS011;1366;47.988;7.856;2023-03-20T06:03:27;2.23;;;2.10;;
2712;SDS011;1366;47.988;7.856;2023-03-20T06:05:53;2.40;;;2.20;;
2712;SDS011;1366;47.988;7.856;2023-03-20T06:08:19;1.93;;;1.83;;
2712;SDS011;1366;47.988;7.856;2023-03-20T06:10:45;2.47;;;2.30;;
2712;SDS011;1366;47.988;7.856;2023-03-20T06:13:11;4.30;;;2.30;;
2712;SDS011;1366;47.988;7.856;2023-03-20T06:15:37;2.30;;;2.20;;
2712;SDS011;1366;47.988;7.856;2023-03-20T06:18:03;3.00;;;2.80;;
2712;SDS011;1366;47.988;7.856;2023-03-20T06:20:29;3.83;;;3.53;;
2712;SDS011;1366;47.988;7.856;2023-03-20T06:22:55;3.20;;;3.00;;
2712;SDS011;1366;47.988;7.856;2023-03-20T06:25:21;3.40;;;3.20;;
2712;SDS011;1366;47.988;7.856;2023-03-20T06:27:47;3.27;;;3.07;;
2712;SDS011;1366;47.988;7.856;2023-03-20T06:30:14;3.30;;;3.00;;
2712;SDS011;1366;47.988;7.856;2023-03-20T06:32:40;3.63;;;3.30;;
2712;SDS011;1366;47.988;7.856;2023-03-20T06:35:07;3.23;;;2.90;;
2712;SDS011;1366;47.988;7.856;2023-03-20T06:37:33;3.10;;;2.90;;
2712;SDS011;1366;47.988;7.856;2023-03-20T06:40:00;3.00;;;2.80;;
2712;SDS011;1366;47.988;7.856;2023-03-20T06:42:27;3.50;;;3.30;;
2712;SDS011;1366;47.988;7.856;2023-03-20T06:44:53;4.00;;;3.50;;
2712;SDS011;1366;47.988;7.856;2023-03-20T06:47:20;2.90;;;2.70;;
2712;SDS011;1366;47.988;7.856;2023-03-20T06:49:46;3.33;;;2.93;;
2712;SDS011;1366;47.988;7.856;2023-03-20T06:52:16;4.13;;;3.00;;
2712;SDS011;1366;47.988;7.856;2023-03-20T06:54:43;3.27;;;3.07;;
2712;SDS011;1366;47.988;7.856;2023-03-20T06:57:09;3.20;;;3.00;;
2712;SDS011;1366;47.988;7.856;2023-03-20T06:59:35;3.10;;;2.90;;
2712;SDS011;1366;47.988;7.856;2023-03-20T07:02:02;2.77;;;2.67;;
2712;SDS011;1366;47.988;7.856;2023-03-20T07:04:28;3.03;;;2.83;;
2712;SDS011;1366;47.988;7.856;2023-03-20T07:06:54;3.00;;;2.77;;
2712;SDS011;1366;47.988;7.856;2023-03-20T07:09:20;3.20;;;3.00;;
2712;SDS011;1366;47.988;7.856;2023-03-20T07:11:47;3.07;;;2.77;;
2712;SDS011;1366;47.988;7.856;2023-03-20T07:14:13;2.57;;;2.37;;
2712;SDS011;1366;47.988;7.856;2023-03-20T07:16:39;2.77;;;2.57;;
2712;SDS011;1366;47.988;7.856;2023-03-20T07:19:06;2.90;;;2.70;;
2712;SDS011;1366;47.988;7.856;2023-03-20T07:21:32;2.90;;;2.60;;
2712;SDS011;1366;47.988;7.856;2023-03-20T07:23:58;2.83;;;2.63;;
2712;SDS011;1366;47.988;7.856;2023-03-20T07:26:25;3.23;;;3.03;;
2712;SDS011;1366;47.988;7.856;2023-03-20T07:28:51;2.73;;;2.53;;
2712;SDS011;1366;47.988;7.856;2023-03-20T07:31:21;2.77;;;2.57;;
2712;SDS011;1366;47.988;7.856;2023-03-20T07:33:48;4.70;;;2.67;;
2712;SDS011;1366;47.988;7.856;2023-03-20T07:36:14;2.37;;;2.27;;
2712;SDS011;1366;47.988;7.856;2023-03-20T07:38:40;3.10;;;2.90;;
2712;SDS011;1366;47.988;7.856;2023-03-20T07:41:06;2.87;;;2.67;;
2712;SDS011;1366;47.988;7.856;2023-03-20T07:43:32;2.80;;;2.60;;
2712;SDS011;1366;47.988;7.856;2023-03-20T07:46:02;2.97;;;2.77;;
2712;SDS011;1366;47.988;7.856;2023-03-20T07:48:28;2.93;;;2.70;;
2712;SDS011;1366;47.988;7.856;2023-03-20T07:50:54;2.90;;;2.73;;
2712;SDS011;1366;47.988;7.856;2023-03-20T07:53:20;3.20;;;3.00;;
2712;SDS011;1366;47.988;7.856;2023-03-20T07:55:46;3.40;;;3.10;;
2712;SDS011;1366;47.988;7.856;2023-03-20T07:58:12;3.50;;;3.20;;
2712;SDS011;1366;47.988;7.856;2023-03-20T08:00:38;3.23;;;3.03;;
2712;SDS011;1366;47.988;7.856;2023-03-20T08:03:05;3.77;;;3.53;;
2712;SDS011;1366;47.988;7.856;2023-03-20T08:05:31;4.50;;;3.30;;
2712;SDS011;1366;47.988;7.856;2023-03-20T08:07:57;3.67;;;3.37;;
2712;SDS011;1366;47.988;7.856;2023-03-20T08:10:23;4.00;;;3.70;;
2712;SDS011;1366;47.988;7.856;2023-03-20T08:12:49;3.80;;;3.50;;
2712;SDS011;1366;47.988;7.856;2023-03-20T08:15:16;3.30;;;3.00;;
2712;SDS011;1366;47.988;7.856;2023-03-20T08:17:42;3.60;;;3.30;;
2712;SDS011;1366;47.988;7.856;2023-03-20T08:20:09;3.50;;;3.30;;
2712;SDS011;1366;47.988;7.856;2023-03-20T08:22:35;3.87;;;3.10;;
2712;SDS011;1366;47.988;7.856;2023-03-20T08:25:01;3.17;;;2.97;;
2712;SDS011;1366;47.988;7.856;2023-03-20T08:27:27;3.87;;;3.17;;
2712;SDS011;1366;47.988;7.856;2023-03-20T08:29:53;3.40;;;3.10;;
2712;SDS011;1366;47.988;7.856;2023-03-20T08:32:19;2.80;;;2.60;;
2712;SDS011;1366;47.988;7.856;2023-03-20T08:34:45;2.40;;;2.23;;
2712;SDS011;1366;47.988;7.856;2023-03-20T08:37:11;2.70;;;2.60;;
2712;SDS011;1366;47.988;7.856;2023-03-20T08:39:38;3.23;;;2.83;;
2712;SDS011;1366;47.988;7.856;2023-03-20T08:42:05;2.70;;;2.50;;
2712;SDS011;1366;47.988;7.856;2023-03-20T08:44:31;5.37;;;3.00;;
2712;SDS011;1366;47.988;7.856;2023-03-20T08:46:57;3.13;;;2.83;;
2712;SDS011;1366;47.988;7.856;2023-03-20T08:49:23;4.60;;;2.80;;
2712;SDS011;1366;47.988;7.856;2023-03-20T08:51:49;3.33;;;3.00;;
2712;SDS011;1366;47.988;7.856;2023-03-20T08:54:15;2.67;;;2.47;;
2712;SDS011;1366;47.988;7.856;2023-03-20T08:56:42;2.80;;;2.60;;
2712;SDS011;1366;47.988;7.856;2023-03-20T08:59:09;3.83;;;3.17;;
2712;SDS011;1366;47.988;7.856;2023-03-20T09:01:35;2.60;;;2.50;;
2712;SDS011;1366;47.988;7.856;2023-03-20T09:04:02;3.00;;;2.80;;
2712;SDS011;1366;47.988;7.856;2023-03-20T09:06:28;3.10;;;2.90;;
2712;SDS011;1366;47.988;7.856;2023-03-20T09:08:54;3.40;;;3.17;;
2712;SDS011;1366;47.988;7.856;2023-03-20T09:11:21;2.60;;;2.40;;
2712;SDS011;1366;47.988;7.856;2023-03-20T09:13:47;2.70;;;2.50;;
2712;SDS011;1366;47.988;7.856;2023-03-20T09:16:13;2.93;;;2.20;;
2712;SDS011;1366;47.988;7.856;2023-03-20T09:18:40;2.37;;;2.27;;
2712;SDS011;1366;47.988;7.856;2023-03-20T09:21:06;2.40;;;2.27;;
2712;SDS011;1366;47.988;7.856;2023-03-20T09:23:32;2.43;;;2.23;;
2712;SDS011;1366;47.988;7.856;2023-03-20T09:25:58;2.03;;;1.93;;
2712;SDS011;1366;47.988;7.856;2023-03-20T09:28:24;1.90;;;1.80;;
2712;SDS011;1366;47.988;7.856;2023-03-20T09:30:55;1.93;;;1.83;;
2712;SDS011;1366;47.988;7.856;2023-03-20T09:33:21;1.70;;;1.60;;
2712;SDS011;1366;47.988;7.856;2023-03-20T09:35:47;1.83;;;1.60;;
2712;SDS011;1366;47.988;7.856;2023-03-20T09:38:13;2.83;;;2.63;;
2712;SDS011;1366;47.988;7.856;2023-03-20T09:40:48;2.77;;;2.57;;
2712;SDS011;1366;47.988;7.856;2023-03-20T09:43:25;2.87;;;2.57;;
2712;SDS011;1366;47.988;7.856;2023-03-20T09:48:40;2.87;;;2.67;;
2712;SDS011;1366;47.988;7.856;2023-03-20T09:51:11;2.50;;;2.30;;
2712;SDS011;1366;47.988;7.856;2023-03-20T09:53:43;2.63;;;2.47;;
2712;SDS011;1366;47.988;7.856;2023-03-20T09:56:13;2.63;;;2.43;;
2712;SDS011;1366;47.988;7.856;2023-03-20T09:58:40;2.80;;;2.60;;
2712;SDS011;1366;47.988;7.856;2023-03-20T10:01:09;2.77;;;2.57;;
2712;SDS011;1366;47.988;7.856;2023-03-20T10:06:13;2.73;;;2.53;;
2712;SDS011;1366;47.988;7.856;2023-03-20T10:08:40;2.50;;;2.30;;
2712;SDS011;1366;47.988;7.856;2023-03-20T10:11:22;2.87;;;2.60;;
2712;SDS011;1366;47.988;7.856;2023-03-20T10:19:21;2.77;;;2.57;;
2712;SDS011;1366;47.988;7.856;2023-03-20T10:21:49;2.63;;;2.43;;
2712;SDS011;1366;47.988;7.856;2023-03-20T10:26:49;5.20;;;2.40;;
2712;SDS011;1366;47.988;7.856;2023-03-20T10:29:28;2.90;;;2.70;;
2712;SDS011;1366;47.988;7.856;2023-03-20T10:32:16;3.00;;;2.73;;
2712;SDS011;1366;47.988;7.856;2023-03-20T10:42:23;2.40;;;2.20;;
2712;SDS011;1366;47.988;7.856;2023-03-20T10:45:07;2.00;;;1.90;;
2712;SDS011;1366;47.988;7.856;2023-03-20T10:47:37;1.97;;;1.87;;
2712;SDS011;1366;47.988;7.856;2023-03-20T10:50:04;2.13;;;2.03;;
2712;SDS011;1366;47.988;7.856;2023-03-20T10:52:32;2.00;;;1.90;;
2712;SDS011;1366;47.988;7.856;2023-03-20T10:55:10;1.80;;;1.70;;
2712;SDS011;1366;47.988;7.856;2023-03-20T10:57:38;1.73;;;1.60;;
2712;SDS011;1366;47.988;7.856;2023-03-20T11:00:06;1.67;;;1.57;;
2712;SDS011;1366;47.988;7.856;2023-03-20T11:02:36;1.60;;;1.43;;
2712;SDS011;1366;47.988;7.856;2023-03-20T11:05:44;2.00;;;1.90;;
2712;SDS011;1366;47.988;7.856;2023-03-20T11:07:59;2.07;;;1.97;;
2712;SDS011;1366;47.988;7.856;2023-03-20T11:10:26;1.73;;;1.63;;
2712;SDS011;1366;47.988;7.856;2023-03-20T11:12:52;2.00;;;1.80;;
2712;SDS011;1366;47.988;7.856;2023-03-20T11:15:31;1.87;;;1.77;;
2712;SDS011;1366;47.988;7.856;2023-03-20T11:17:59;1.70;;;1.60;;
2712;SDS011;1366;47.988;7.856;2023-03-20T11:20:30;2.00;;;1.90;;
2712;SDS011;1366;47.988;7.856;2023-03-20T11:22:57;2.20;;;2.10;;
2712;SDS011;1366;47.988;7.856;2023-03-20T11:25:28;1.80;;;1.70;;
2712;SDS011;1366;47.988;7.856;2023-03-20T11:27:55;1.90;;;1.80;;
2712;SDS011;1366;47.988;7.856;2023-03-20T11:30:22;2.00;;;1.90;;
2712;SDS011;1366;47.988;7.856;2023-03-20T11:32:49;2.43;;;2.23;;
2712;SDS011;1366;47.988;7.856;2023-03-20T11:35:20;1.90;;;1.70;;
2712;SDS011;1366;47.988;7.856;2023-03-20T11:37:48;2.40;;;2.30;;
2712;SDS011;1366;47.988;7.856;2023-03-20T11:40:17;2.63;;;2.43;;
2712;SDS011;1366;47.988;7.856;2023-03-20T11:42:56;2.67;;;2.47;;
2712;SDS011;1366;47.988;7.856;2023-03-20T11:45:33;2.50;;;2.27;;
2712;SDS011;1366;47.988;7.856;2023-03-20T11:48:00;2.60;;;2.40;;
2712;SDS011;1366;47.988;7.856;2023-03-20T11:50:36;3.27;;;3.07;;
2712;SDS011;1366;47.988;7.856;2023-03-20T11:53:03;2.87;;;2.67;;
2712;SDS011;1366;47.988;7.856;2023-03-20T11:55:41;2.20;;;2.10;;
2712;SDS011;1366;47.988;7.856;2023-03-20T11:58:10;3.03;;;2.47;;
2712;SDS011;1366;47.988;7.856;2023-03-20T12:00:39;2.70;;;2.60;;
2712;SDS011;1366;47.988;7.856;2023-03-20T12:05:51;2.60;;;2.40;;
2712;SDS011;1366;47.988;7.856;2023-03-20T12:08:25;2.60;;;2.10;;
2712;SDS011;1366;47.988;7.856;2023-03-20T12:10:58;2.50;;;2.40;;
2712;SDS011;1366;47.988;7.856;2023-03-20T12:13:27;2.20;;;2.10;;
2712;SDS011;1366;47.988;7.856;2023-03-20T12:15:56;2.40;;;2.23;;
2712;SDS011;1366;47.988;7.856;2023-03-20T12:18:30;2.60;;;2.40;;
2712;SDS011;1366;47.988;7.856;2023-03-20T12:23:33;2.70;;;2.30;;
2712;SDS011;1366;47.988;7.856;2023-03-20T12:26:04;2.10;;;2.00;;
2712;SDS011;1366;47.988;7.856;2023-03-20T12:28:42;2.57;;;2.37;;
2712;SDS011;1366;47.988;7.856;2023-03-20T12:36:02;2.20;;;2.00;;
2712;SDS011;1366;47.988;7.856;2023-03-20T12:38:29;2.07;;;1.97;;
2712;SDS011;1366;47.988;7.856;2023-03-20T12:41:20;2.10;;;2.00;;
2712;SDS011;1366;47.988;7.856;2023-03-20T13:02:16;3.10;;;2.13;;
2712;SDS011;1366;47.988;7.856;2023-03-20T13:04:49;2.33;;;2.13;;
2712;SDS011;1366;47.988;7.856;2023-03-20T13:07:20;3.20;;;2.20;;
2712;SDS011;1366;47.988;7.856;2023-03-20T13:12:45;2.47;;;2.27;;
2712;SDS011;1366;47.988;7.856;2023-03-20T13:15:19;1.80;;;1.70;;
2712;SDS011;1366;47.988;7.856;2023-03-20T13:22:49;1.77;;;1.67;;
2712;SDS011;1366;47.988;7.856;2023-03-20T13:27:53;2.83;;;1.83;;
2712;SDS011;1366;47.988;7.856;2023-03-20T13:38:41;1.50;;;1.40;;
2712;SDS011;1366;47.988;7.856;2023-03-20T13:41:10;2.00;;;1.80;;
2712;SDS011;1366;47.988;7.856;2023-03-20T13:43:44;2.10;;;1.90;;
2712;SDS011;1366;47.988;7.856;2023-03-20T13:46:21;1.70;;;1.60;;
2712;SDS011;1366;47.988;7.856;2023-03-20T13:48:48;1.70;;;1.60;;
2712;SDS011;1366;47.988;7.856;2023-03-20T13:51:18;1.60;;;1.50;;
2712;SDS011;1366;47.988;7.856;2023-03-20T13:56:39;1.90;;;1.80;;
2712;SDS011;1366;47.988;7.856;2023-03-20T14:01:45;2.40;;;2.00;;
2712;SDS011;1366;47.988;7.856;2023-03-20T14:04:16;2.00;;;1.90;;
2712;SDS011;1366;47.988;7.856;2023-03-20T14:06:44;1.80;;;1.70;;
2712;SDS011;1366;47.988;7.856;2023-03-20T14:11:55;1.70;;;1.60;;
2712;SDS011;1366;47.988;7.856;2023-03-20T14:14:26;2.00;;;1.90;;
2712;SDS011;1366;47.988;7.856;2023-03-20T14:17:12;1.70;;;1.60;;
2712;SDS011;1366;47.988;7.856;2023-03-20T14:19:39;1.70;;;1.60;;
2712;SDS011;1366;47.988;7.856;2023-03-20T14:22:06;2.00;;;1.80;;
2712;SDS011;1366;47.988;7.856;2023-03-20T14:24:39;1.77;;;1.50;;
2712;SDS011;1366;47.988;7.856;2023-03-20T14:27:05;2.30;;;2.10;;
2712;SDS011;1366;47.988;7.856;2023-03-20T14:29:32;1.87;;;1.77;;
2712;SDS011;1366;47.988;7.856;2023-03-20T14:34:28;1.50;;;1.40;;
2712;SDS011;1366;47.988;7.856;2023-03-20T14:37:29;1.87;;;1.67;;
2712;SDS011;1366;47.988;7.856;2023-03-20T14:40:00;1.90;;;1.80;;
2712;SDS011;1366;47.988;7.856;2023-03-20T14:42:34;1.43;;;1.40;;
2712;SDS011;1366;47.988;7.856;2023-03-20T14:52:52;1.90;;;1.60;;
2712;SDS011;1366;47.988;7.856;2023-03-20T14:57:45;2.13;;;1.80;;
2712;SDS011;1366;47.988;7.856;2023-03-20T15:00:18;1.70;;;1.60;;
2712;SDS011;1366;47.988;7.856;2023-03-20T15:02:49;1.60;;;1.50;;
2712;SDS011;1366;47.988;7.856;2023-03-20T15:05:32;2.00;;;1.63;;
2712;SDS011;1366;47.988;7.856;2023-03-20T15:10:30;1.70;;;1.60;;
2712;SDS011;1366;47.988;7.856;2023-03-20T15:12:58;1.57;;;1.40;;
2712;SDS011;1366;47.988;7.856;2023-03-20T15:15:28;1.73;;;1.63;;
2712;SDS011;1366;47.988;7.856;2023-03-20T15:18:09;1.87;;;1.77;;
2712;SDS011;1366;47.988;7.856;2023-03-20T15:20:36;1.77;;;1.60;;
2712;SDS011;1366;47.988;7.856;2023-03-20T15:23:02;1.53;;;1.43;;
2712;SDS011;1366;47.988;7.856;2023-03-20T15:25:40;1.80;;;1.70;;
2712;SDS011;1366;47.988;7.856;2023-03-20T15:30:39;1.70;;;1.60;;
2712;SDS011;1366;47.988;7.856;2023-03-20T15:33:06;1.83;;;1.57;;
2712;SDS011;1366;47.988;7.856;2023-03-20T15:35:33;6.33;;;1.57;;
2712;SDS011;1366;47.988;7.856;2023-03-20T15:38:03;1.80;;;1.53;;
2712;SDS011;1366;47.988;7.856;2023-03-20T15:40:30;1.70;;;1.60;;
2712;SDS011;1366;47.988;7.856;2023-03-20T15:43:02;1.90;;;1.80;;
2712;SDS011;1366;47.988;7.856;2023-03-20T15:45:31;1.80;;;1.70;;
2712;SDS011;1366;47.988;7.856;2023-03-20T15:48:04;1.70;;;1.60;;
2712;SDS011;1366;47.988;7.856;2023-03-20T15:50:31;2.17;;;1.60;;
2712;SDS011;1366;47.988;7.856;2023-03-20T15:52:58;3.10;;;1.87;;
2712;SDS011;1366;47.988;7.856;2023-03-20T15:55:25;1.63;;;1.53;;
2712;SDS011;1366;47.988;7.856;2023-03-20T15:57:52;2.17;;;2.00;;
2712;SDS011;1366;47.988;7.856;2023-03-20T16:00:25;2.10;;;1.73;;
2712;SDS011;1366;47.988;7.856;2023-03-20T16:02:53;2.17;;;2.00;;
2712;SDS011;1366;47.988;7.856;2023-03-20T16:05:20;1.80;;;1.70;;
2712;SDS011;1366;47.988;7.856;2023-03-20T16:07:47;2.00;;;1.90;;
2712;SDS011;1366;47.988;7.856;2023-03-20T16:10:18;1.50;;;1.40;;
2712;SDS011;1366;47.988;7.856;2023-03-20T16:12:46;1.70;;;1.60;;
2712;SDS011;1366;47.988;7.856;2023-03-20T16:15:14;1.70;;;1.60;;
2712;SDS011;1366;47.988;7.856;2023-03-20T16:17:41;2.27;;;1.70;;
2712;SDS011;1366;47.988;7.856;2023-03-20T16:20:11;1.70;;;1.60;;
2712;SDS011;1366;47.988;7.856;2023-03-20T16:22:38;2.20;;;2.00;;
2712;SDS011;1366;47.988;7.856;2023-03-20T16:25:04;1.53;;;1.43;;
2712;SDS011;1366;47.988;7.856;2023-03-20T16:27:32;1.50;;;1.40;;
2712;SDS011;1366;47.988;7.856;2023-03-20T16:29:58;2.20;;;2.00;;
2712;SDS011;1366;47.988;7.856;2023-03-20T16:32:32;2.30;;;1.60;;
2712;SDS011;1366;47.988;7.856;2023-03-20T16:35:00;1.80;;;1.70;;
2712;SDS011;1366;47.988;7.856;2023-03-20T16:37:29;1.50;;;1.40;;
2712;SDS011;1366;47.988;7.856;2023-03-20T16:42:40;1.80;;;1.70;;
2712;SDS011;1366;47.988;7.856;2023-03-20T16:45:19;1.73;;;1.63;;
2712;SDS011;1366;47.988;7.856;2023-03-20T16:47:47;2.33;;;2.13;;
2712;SDS011;1366;47.988;7.856;2023-03-20T16:50:56;1.70;;;1.60;;
2712;SDS011;1366;47.988;7.856;2023-03-20T16:53:02;1.60;;;1.50;;
2712;SDS011;1366;47.988;7.856;2023-03-20T16:55:33;1.50;;;1.40;;
2712;SDS011;1366;47.988;7.856;2023-03-20T16:58:02;1.83;;;1.73;;
2712;SDS011;1366;47.988;7.856;2023-03-20T17:00:30;1.80;;;1.70;;
2712;SDS011;1366;47.988;7.856;2023-03-20T17:03:04;2.00;;;1.90;;
2712;SDS011;1366;47.988;7.856;2023-03-20T17:05:44;2.03;;;1.93;;
2712;SDS011;1366;47.988;7.856;2023-03-20T17:08:12;1.87;;;1.63;;
2712;SDS011;1366;47.988;7.856;2023-03-20T17:10:41;3.33;;;1.80;;
2712;SDS011;1366;47.988;7.856;2023-03-20T17:13:07;2.10;;;1.90;;
2712;SDS011;1366;47.988;7.856;2023-03-20T17:15:33;2.10;;;2.00;;
2712;SDS011;1366;47.988;7.856;2023-03-20T17:17:59;2.03;;;1.90;;
2712;SDS011;1366;47.988;7.856;2023-03-20T17:20:28;2.20;;;2.00;;
2712;SDS011;1366;47.988;7.856;2023-03-20T17:22:56;4.23;;;1.90;;
2712;SDS011;1366;47.988;7.856;2023-03-20T17:25:22;1.97;;;1.87;;
2712;SDS011;1366;47.988;7.856;2023-03-20T17:27:48;2.13;;;2.03;;
2712;SDS011;1366;47.988;7.856;2023-03-20T17:30:21;2.00;;;1.90;;
2712;SDS011;1366;47.988;7.856;2023-03-20T17:32:48;2.17;;;2.00;;
2712;SDS011;1366;47.988;7.856;2023-03-20T17:35:15;1.87;;;1.77;;
2712;SDS011;1366;47.988;7.856;2023-03-20T17:37:41;2.30;;;2.10;;
2712;SDS011;1366;47.988;7.856;2023-03-20T17:40:10;2.43;;;2.23;;
2712;SDS011;1366;47.988;7.856;2023-03-20T17:42:39;2.30;;;2.20;;
2712;SDS011;1366;47.988;7.856;2023-03-20T17:45:08;3.10;;;2.90;;
2712;SDS011;1366;47.988;7.856;2023-03-20T17:47:34;3.93;;;3.60;;
2712;SDS011;1366;47.988;7.856;2023-03-20T17:50:00;3.90;;;3.20;;
2712;SDS011;1366;47.988;7.856;2023-03-20T17:52:27;3.30;;;3.00;;
2712;SDS011;1366;47.988;7.856;2023-03-20T17:54:53;3.33;;;2.93;;
2712;SDS011;1366;47.988;7.856;2023-03-20T17:57:21;3.13;;;2.93;;
2712;SDS011;1366;47.988;7.856;2023-03-20T17:59:48;2.70;;;2.50;;
2712;SDS011;1366;47.988;7.856;2023-03-20T18:02:15;3.00;;;2.70;;
2712;SDS011;1366;47.988;7.856;2023-03-20T18:04:42;6.30;;;5.80;;
2712;SDS011;1366;47.988;7.856;2023-03-20T18:07:08;5.50;;;5.10;;
2712;SDS011;1366;47.988;7.856;2023-03-20T18:09:36;5.17;;;4.80;;
2712;SDS011;1366;47.988;7.856;2023-03-20T18:12:02;4.87;;;4.47;;
2712;SDS011;1366;47.988;7.856;2023-03-20T18:14:28;4.40;;;4.10;;
2712;SDS011;1366;47.988;7.856;2023-03-20T18:16:54;4.00;;;3.70;;
2712;SDS011;1366;47.988;7.856;2023-03-20T18:19:22;4.70;;;4.30;;
2712;SDS011;1366;47.988;7.856;2023-03-20T18:21:49;5.30;;;4.83;;
2712;SDS011;1366;47.988;7.856;2023-03-20T18:24:15;4.13;;;3.80;;
2712;SDS011;1366;47.988;7.856;2023-03-20T18:26:41;3.33;;;3.13;;
2712;SDS011;1366;47.988;7.856;2023-03-20T18:29:09;3.57;;;3.27;;
2712;SDS011;1366;47.988;7.856;2023-03-20T18:31:36;4.40;;;3.60;;
2712;SDS011;1366;47.988;7.856;2023-03-20T18:34:02;4.60;;;3.83;;
2712;SDS011;1366;47.988;7.856;2023-03-20T18:36:28;3.60;;;3.30;;
2712;SDS011;1366;47.988;7.856;2023-03-20T18:38:54;4.40;;;4.10;;
2712;SDS011;1366;47.988;7.856;2023-03-20T18:41:20;4.30;;;4.00;;
2712;SDS011;1366;47.988;7.856;2023-03-20T18:43:46;6.70;;;6.10;;
2712;SDS011;1366;47.988;7.856;2023-03-20T18:46:16;6.57;;;6.07;;
2712;SDS011;1366;47.988;7.856;2023-03-20T18:48:42;6.53;;;6.03;;
2712;SDS011;1366;47.988;7.856;2023-03-20T18:51:08;6.13;;;5.60;;
2712;SDS011;1366;47.988;7.856;2023-03-20T18:53:34;5.03;;;4.73;;
2712;SDS011;1366;47.988;7.856;2023-03-20T18:56:00;6.67;;;6.07;;
2712;SDS011;1366;47.988;7.856;2023-03-20T18:58:27;5.27;;;4.87;;
2712;SDS011;1366;47.988;7.856;2023-03-20T19:00:54;5.10;;;4.70;;
2712;SDS011;1366;47.988;7.856;2023-03-20T19:03:21;5.70;;;5.20;;
2712;SDS011;1366;47.988;7.856;2023-03-20T19:05:49;6.57;;;4.30;;
2712;SDS011;1366;47.988;7.856;2023-03-20T19:08:15;4.77;;;4.30;;
2712;SDS011;1366;47.988;7.856;2023-03-20T19:10:41;5.23;;;3.77;;
2712;SDS011;1366;47.988;7.856;2023-03-20T19:13:09;4.70;;;4.40;;
2712;SDS011;1366;47.988;7.856;2023-03-20T19:15:36;4.70;;;4.30;;
2712;SDS011;1366;47.988;7.856;2023-03-20T19:18:19;5.40;;;4.60;;
2712;SDS011;1366;47.988;7.856;2023-03-20T19:20:52;5.20;;;4.30;;
2712;SDS011;1366;47.988;7.856;2023-03-20T19:23:19;4.60;;;4.30;;
2712;SDS011;1366;47.988;7.856;2023-03-20T19:25:47;4.90;;;4.50;;
2712;SDS011;1366;47.988;7.856;2023-03-20T19:30:45;4.57;;;4.27;;
2712;SDS011;1366;47.988;7.856;2023-03-20T19:33:12;4.60;;;3.97;;
2712;SDS011;1366;47.988;7.856;2023-03-20T19:35:38;4.87;;;4.47;;
2712;SDS011;1366;47.988;7.856;2023-03-20T19:38:04;4.87;;;4.47;;
2712;SDS011;1366;47.988;7.856;2023-03-20T19:42:56;4.30;;;3.87;;
2712;SDS011;1366;47.988;7.856;2023-03-20T19:45:24;4.20;;;3.80;;
2712;SDS011;1366;47.988;7.856;2023-03-20T19:47:50;4.23;;;3.83;;
2712;SDS011;1366;47.988;7.856;2023-03-20T19:50:22;3.93;;;3.63;;
2712;SDS011;1366;47.988;7.856;2023-03-20T19:52:48;4.17;;;3.77;;
2712;SDS011;1366;47.988;7.856;2023-03-20T19:55:14;4.13;;;3.87;;
2712;SDS011;1366;47.988;7.856;2023-03-20T19:57:40;3.87;;;3.60;;
2712;SDS011;1366;47.988;7.856;2023-03-20T20:00:06;4.30;;;3.90;;
2712;SDS011;1366;47.988;7.856;2023-03-20T20:02:33;4.07;;;3.77;;
2712;SDS011;1366;47.988;7.856;2023-03-20T20:04:59;4.27;;;3.97;;
2712;SDS011;1366;47.988;7.856;2023-03-20T20:07:25;4.03;;;3.70;;
2712;SDS011;1366;47.988;7.856;2023-03-20T20:09:51;4.17;;;3.87;;
2712;SDS011;1366;47.988;7.856;2023-03-20T20:12:17;4.10;;;3.80;;
2712;SDS011;1366;47.988;7.856;2023-03-20T20:14:43;4.00;;;3.70;;
2712;SDS011;1366;47.988;7.856;2023-03-20T20:17:10;4.40;;;3.70;;
2712;SDS011;1366;47.988;7.856;2023-03-20T20:19:36;3.87;;;3.53;;
2712;SDS011;1366;47.988;7.856;2023-03-20T20:22:02;3.97;;;3.60;;
2712;SDS011;1366;47.988;7.856;2023-03-20T20:24:28;4.13;;;3.73;;
2712;SDS011;1366;47.988;7.856;2023-03-20T20:26:54;4.00;;;3.70;;
2712;SDS011;1366;47.988;7.856;2023-03-20T20:29:21;3.97;;;3.70;;
2712;SDS011;1366;47.988;7.856;2023-03-20T20:31:48;4.03;;;3.73;;
2712;SDS011;1366;47.988;7.856;2023-03-20T20:34:15;4.50;;;4.10;;
2712;SDS011;1366;47.988;7.856;2023-03-20T20:36:41;4.50;;;4.03;;
2712;SDS011;1366;47.988;7.856;2023-03-20T20:39:07;5.13;;;3.70;;
2712;SDS011;1366;47.988;7.856;2023-03-20T20:41:33;5.87;;;4.50;;
2712;SDS011;1366;47.988;7.856;2023-03-20T20:43:59;3.70;;;3.40;;
2712;SDS011;1366;47.988;7.856;2023-03-20T20:46:25;4.63;;;4.23;;
2712;SDS011;1366;47.988;7.856;2023-03-20T20:48:51;3.90;;;3.60;;
2712;SDS011;1366;47.988;7.856;2023-03-20T20:51:17;4.43;;;4.13;;
2712;SDS011;1366;47.988;7.856;2023-03-20T20:53:43;5.93;;;3.87;;
2712;SDS011;1366;47.988;7.856;2023-03-20T20:56:09;5.33;;;4.83;;
2712;SDS011;1366;47.988;7.856;2023-03-20T20:58:35;4.63;;;4.33;;
2712;SDS011;1366;47.988;7.856;2023-03-20T21:01:02;5.63;;;5.13;;
2712;SDS011;1366;47.988;7.856;2023-03-20T21:03:28;5.40;;;4.90;;
2712;SDS011;1366;47.988;7.856;2023-03-20T21:05:54;9.90;;;5.63;;
2712;SDS011;1366;47.988;7.856;2023-03-20T21:08:20;5.53;;;5.03;;
2712;SDS011;1366;47.988;7.856;2023-03-20T21:10:47;5.07;;;4.67;;
2712;SDS011;1366;47.988;7.856;2023-03-20T21:13:14;5.40;;;5.00;;
2712;SDS011;1366;47.988;7.856;2023-03-20T21:15:40;4.57;;;4.27;;
2712;SDS011;1366;47.988;7.856;2023-03-20T21:18:09;4.73;;;4.33;;
2712;SDS011;1366;47.988;7.856;2023-03-20T21:20:35;4.33;;;4.03;;
2712;SDS011;1366;47.988;7.856;2023-03-20T21:23:01;4.30;;;3.90;;
2712;SDS011;1366;47.988;7.856;2023-03-20T21:25:27;4.07;;;3.77;;
2712;SDS011;1366;47.988;7.856;2023-03-20T21:27:53;4.73;;;4.33;;
2712;SDS011;1366;47.988;7.856;2023-03-20T21:30:20;4.70;;;4.30;;
2712;SDS011;1366;47.988;7.856;2023-03-20T21:32:46;5.70;;;4.57;;
2712;SDS011;1366;47.988;7.856;2023-03-20T21:35:13;4.27;;;3.90;;
2712;SDS011;1366;47.988;7.856;2023-03-20T21:37:39;3.97;;;3.67;;
2712;SDS011;1366;47.988;7.856;2023-03-20T21:40:05;4.00;;;3.67;;
2712;SDS011;1366;47.988;7.856;2023-03-20T21:42:32;4.20;;;3.90;;
2712;SDS011;1366;47.988;7.856;2023-03-20T21:45:00;4.13;;;3.83;;
2712;SDS011;1366;47.988;7.856;2023-03-20T21:47:26;4.87;;;4.30;;
2712;SDS011;1366;47.988;7.856;2023-03-20T21:49:53;3.97;;;3.63;;
2712;SDS011;1366;47.988;7.856;2023-03-20T21:52:20;4.10;;;3.70;;
2712;SDS011;1366;47.988;7.856;2023-03-20T21:54:47;3.97;;;3.67;;
2712;SDS011;1366;47.988;7.856;2023-03-20T21:57:13;3.73;;;3.47;;
2712;SDS011;1366;47.988;7.856;2023-03-20T21:59:39;4.20;;;3.90;;
2712;SDS011;1366;47.988;7.856;2023-03-20T22:02:06;3.77;;;3.47;;
2712;SDS011;1366;47.988;7.856;2023-03-20T22:04:32;5.10;;;4.07;;
2712;SDS011;1366;47.988;7.856;2023-03-20T22:06:58;3.67;;;3.37;;